sensor_id;sensor_type;location;lat;lon;timestamp;P1;durP1;ratioP1;P2;durP2;ratioP2
18435;SDS011;9346;52.006;4.720;2023-08-30T00:01:12;6.63;;;3.63;;
18435;SDS011;9346;52.006;4.720;2023-08-30T00:03:39;5.33;;;3.63;;
18435;SDS011;9346;52.006;4.720;2023-08-30T00:06:06;4.60;;;3.47;;
18435;SDS011;9346;52.006;4.720;2023-08-30T00:08:34;3.80;;;3.23;;
18435;SDS011;9346;52.006;4.720;2023-08-30T00:11:01;6.23;;;3.60;;
18435;SDS011;9346;52.006;4.720;2023-08-30T00:13:31;4.77;;;3.90;;
18435;SDS011;9346;52.006;4.720;2023-08-30T00:15:59;5.40;;;3.47;;
18435;SDS011;9346;52.006;4.720;2023-08-30T00:18:27;7.17;;;3.77;;
18435;SDS011;9346;52.006;4.720;2023-08-30T00:20:54;5.80;;;3.70;;
18435;SDS011;9346;52.006;4.720;2023-08-30T00:23:22;5.10;;;3.60;;
18435;SDS011;9346;52.006;4.720;2023-08-30T00:25:48;4.00;;;2.77;;
18435;SDS011;9346;52.006;4.720;2023-08-30T00:28:15;6.17;;;4.03;;
18435;SDS011;9346;52.006;4.720;2023-08-30T00:30:44;5.97;;;4.73;;
18435;SDS011;9346;52.006;4.720;2023-08-30T00:33:10;5.83;;;3.70;;
18435;SDS011;9346;52.006;4.720;2023-08-30T00:35:39;6.60;;;4.03;;
18435;SDS011;9346;52.006;4.720;2023-08-30T00:38:06;5.60;;;3.87;;
18435;SDS011;9346;52.006;4.720;2023-08-30T00:40:37;6.70;;;3.97;;
18435;SDS011;9346;52.006;4.720;2023-08-30T00:43:05;7.77;;;4.27;;
18435;SDS011;9346;52.006;4.720;2023-08-30T00:45:32;6.33;;;4.63;;
18435;SDS011;9346;52.006;4.720;2023-08-30T00:48:01;6.53;;;4.57;;
18435;SDS011;9346;52.006;4.720;2023-08-30T00:50:30;8.03;;;4.67;;
18435;SDS011;9346;52.006;4.720;2023-08-30T00:52:56;5.90;;;4.20;;
18435;SDS011;9346;52.006;4.720;2023-08-30T00:55:23;7.30;;;5.07;;
18435;SDS011;9346;52.006;4.720;2023-08-30T00:57:50;7.10;;;5.10;;
18435;SDS011;9346;52.006;4.720;2023-08-30T01:00:17;7.77;;;4.97;;
18435;SDS011;9346;52.006;4.720;2023-08-30T01:02:44;7.97;;;5.40;;
18435;SDS011;9346;52.006;4.720;2023-08-30T01:05:13;8.80;;;5.50;;
18435;SDS011;9346;52.006;4.720;2023-08-30T01:07:40;5.07;;;4.43;;
18435;SDS011;9346;52.006;4.720;2023-08-30T01:10:07;6.83;;;4.97;;
18435;SDS011;9346;52.006;4.720;2023-08-30T01:12:37;7.77;;;4.87;;
18435;SDS011;9346;52.006;4.720;2023-08-30T01:15:08;7.47;;;5.13;;
18435;SDS011;9346;52.006;4.720;2023-08-30T01:17:37;8.13;;;5.67;;
18435;SDS011;9346;52.006;4.720;2023-08-30T01:20:06;7.37;;;4.87;;
18435;SDS011;9346;52.006;4.720;2023-08-30T01:22:50;8.67;;;5.67;;
18435;SDS011;9346;52.006;4.720;2023-08-30T01:25:27;9.83;;;5.80;;
18435;SDS011;9346;52.006;4.720;2023-08-30T01:28:04;10.33;;;5.90;;
18435;SDS011;9346;52.006;4.720;2023-08-30T01:30:32;8.43;;;5.57;;
18435;SDS011;9346;52.006;4.720;2023-08-30T01:33:02;8.60;;;5.97;;
18435;SDS011;9346;52.006;4.720;2023-08-30T01:35:30;10.17;;;5.13;;
18435;SDS011;9346;52.006;4.720;2023-08-30T01:38:02;5.13;;;4.63;;
18435;SDS011;9346;52.006;4.720;2023-08-30T01:40:32;7.27;;;5.70;;
18435;SDS011;9346;52.006;4.720;2023-08-30T01:43:02;7.43;;;4.97;;
18435;SDS011;9346;52.006;4.720;2023-08-30T01:45:34;8.00;;;5.60;;
18435;SDS011;9346;52.006;4.720;2023-08-30T01:48:03;8.63;;;5.43;;
18435;SDS011;9346;52.006;4.720;2023-08-30T01:50:32;8.63;;;5.70;;
18435;SDS011;9346;52.006;4.720;2023-08-30T01:53:00;7.77;;;5.13;;
18435;SDS011;9346;52.006;4.720;2023-08-30T01:55:29;10.53;;;6.00;;
18435;SDS011;9346;52.006;4.720;2023-08-30T01:57:56;7.03;;;5.50;;
18435;SDS011;9346;52.006;4.720;2023-08-30T02:00:25;9.27;;;5.30;;
18435;SDS011;9346;52.006;4.720;2023-08-30T02:02:52;8.67;;;5.97;;
18435;SDS011;9346;52.006;4.720;2023-08-30T02:05:20;7.43;;;5.20;;
18435;SDS011;9346;52.006;4.720;2023-08-30T02:07:48;9.23;;;5.67;;
18435;SDS011;9346;52.006;4.720;2023-08-30T02:10:21;9.07;;;5.83;;
18435;SDS011;9346;52.006;4.720;2023-08-30T02:12:52;9.90;;;5.60;;
18435;SDS011;9346;52.006;4.720;2023-08-30T02:15:21;8.50;;;5.43;;
18435;SDS011;9346;52.006;4.720;2023-08-30T02:17:52;10.07;;;6.00;;
18435;SDS011;9346;52.006;4.720;2023-08-30T02:20:20;10.27;;;5.53;;
18435;SDS011;9346;52.006;4.720;2023-08-30T02:22:47;10.50;;;6.47;;
18435;SDS011;9346;52.006;4.720;2023-08-30T02:25:14;9.40;;;5.97;;
18435;SDS011;9346;52.006;4.720;2023-08-30T02:27:41;7.03;;;5.00;;
18435;SDS011;9346;52.006;4.720;2023-08-30T02:30:08;12.20;;;5.60;;
18435;SDS011;9346;52.006;4.720;2023-08-30T02:32:36;9.50;;;5.47;;
18435;SDS011;9346;52.006;4.720;2023-08-30T02:35:05;7.73;;;4.80;;
18435;SDS011;9346;52.006;4.720;2023-08-30T02:37:33;7.20;;;5.53;;
18435;SDS011;9346;52.006;4.720;2023-08-30T02:40:00;10.90;;;5.53;;
18435;SDS011;9346;52.006;4.720;2023-08-30T02:42:27;12.60;;;7.00;;
18435;SDS011;9346;52.006;4.720;2023-08-30T02:44:54;10.33;;;5.80;;
18435;SDS011;9346;52.006;4.720;2023-08-30T02:47:21;7.47;;;5.27;;
18435;SDS011;9346;52.006;4.720;2023-08-30T02:49:48;9.70;;;5.93;;
18435;SDS011;9346;52.006;4.720;2023-08-30T02:52:17;9.27;;;5.57;;
18435;SDS011;9346;52.006;4.720;2023-08-30T02:54:44;9.53;;;5.37;;
18435;SDS011;9346;52.006;4.720;2023-08-30T02:57:11;11.13;;;6.13;;
18435;SDS011;9346;52.006;4.720;2023-08-30T02:59:38;10.87;;;5.60;;
18435;SDS011;9346;52.006;4.720;2023-08-30T03:02:05;9.30;;;5.97;;
18435;SDS011;9346;52.006;4.720;2023-08-30T03:04:32;9.47;;;5.70;;
18435;SDS011;9346;52.006;4.720;2023-08-30T03:06:59;11.40;;;6.17;;
18435;SDS011;9346;52.006;4.720;2023-08-30T03:09:28;10.43;;;6.43;;
18435;SDS011;9346;52.006;4.720;2023-08-30T03:11:55;8.77;;;6.13;;
18435;SDS011;9346;52.006;4.720;2023-08-30T03:14:21;8.97;;;6.00;;
18435;SDS011;9346;52.006;4.720;2023-08-30T03:16:49;10.70;;;6.50;;
18435;SDS011;9346;52.006;4.720;2023-08-30T03:19:16;11.23;;;6.63;;
18435;SDS011;9346;52.006;4.720;2023-08-30T03:21:43;12.20;;;6.43;;
18435;SDS011;9346;52.006;4.720;2023-08-30T03:24:10;10.17;;;5.97;;
18435;SDS011;9346;52.006;4.720;2023-08-30T03:26:42;10.83;;;6.60;;
18435;SDS011;9346;52.006;4.720;2023-08-30T03:29:09;12.07;;;6.53;;
18435;SDS011;9346;52.006;4.720;2023-08-30T03:31:36;10.27;;;6.57;;
18435;SDS011;9346;52.006;4.720;2023-08-30T03:34:03;8.80;;;5.87;;
18435;SDS011;9346;52.006;4.720;2023-08-30T03:36:29;8.87;;;6.00;;
18435;SDS011;9346;52.006;4.720;2023-08-30T03:38:56;9.37;;;6.40;;
18435;SDS011;9346;52.006;4.720;2023-08-30T03:41:23;11.63;;;6.97;;
18435;SDS011;9346;52.006;4.720;2023-08-30T03:43:52;9.17;;;6.47;;
18435;SDS011;9346;52.006;4.720;2023-08-30T03:46:19;12.67;;;6.73;;
18435;SDS011;9346;52.006;4.720;2023-08-30T03:48:46;9.83;;;6.17;;
18435;SDS011;9346;52.006;4.720;2023-08-30T03:51:12;10.93;;;5.83;;
18435;SDS011;9346;52.006;4.720;2023-08-30T03:53:39;9.93;;;6.57;;
18435;SDS011;9346;52.006;4.720;2023-08-30T03:56:06;9.70;;;5.97;;
18435;SDS011;9346;52.006;4.720;2023-08-30T03:58:33;8.53;;;6.30;;
18435;SDS011;9346;52.006;4.720;2023-08-30T04:01:00;11.07;;;7.47;;
18435;SDS011;9346;52.006;4.720;2023-08-30T04:03:27;9.23;;;6.13;;
18435;SDS011;9346;52.006;4.720;2023-08-30T04:05:55;10.30;;;6.50;;
18435;SDS011;9346;52.006;4.720;2023-08-30T04:08:23;7.97;;;6.17;;
18435;SDS011;9346;52.006;4.720;2023-08-30T04:10:52;9.93;;;6.90;;
18435;SDS011;9346;52.006;4.720;2023-08-30T04:13:19;9.50;;;6.00;;
18435;SDS011;9346;52.006;4.720;2023-08-30T04:15:47;9.87;;;7.20;;
18435;SDS011;9346;52.006;4.720;2023-08-30T04:18:17;9.97;;;6.70;;
18435;SDS011;9346;52.006;4.720;2023-08-30T04:20:44;8.77;;;6.10;;
18435;SDS011;9346;52.006;4.720;2023-08-30T04:23:12;9.40;;;6.23;;
18435;SDS011;9346;52.006;4.720;2023-08-30T04:25:39;11.40;;;6.73;;
18435;SDS011;9346;52.006;4.720;2023-08-30T04:28:06;10.87;;;6.93;;
18435;SDS011;9346;52.006;4.720;2023-08-30T04:30:35;9.37;;;5.73;;
18435;SDS011;9346;52.006;4.720;2023-08-30T04:33:02;10.63;;;6.23;;
18435;SDS011;9346;52.006;4.720;2023-08-30T04:35:32;11.53;;;6.77;;
18435;SDS011;9346;52.006;4.720;2023-08-30T04:37:59;9.10;;;6.10;;
18435;SDS011;9346;52.006;4.720;2023-08-30T04:40:26;12.40;;;7.40;;
18435;SDS011;9346;52.006;4.720;2023-08-30T04:42:55;13.03;;;7.20;;
18435;SDS011;9346;52.006;4.720;2023-08-30T04:45:22;9.43;;;6.90;;
18435;SDS011;9346;52.006;4.720;2023-08-30T04:47:49;11.00;;;6.80;;
18435;SDS011;9346;52.006;4.720;2023-08-30T04:50:16;11.87;;;7.23;;
18435;SDS011;9346;52.006;4.720;2023-08-30T04:52:45;10.83;;;7.17;;
18435;SDS011;9346;52.006;4.720;2023-08-30T04:55:12;10.77;;;7.03;;
18435;SDS011;9346;52.006;4.720;2023-08-30T04:57:39;13.77;;;7.07;;
18435;SDS011;9346;52.006;4.720;2023-08-30T05:00:10;11.73;;;6.37;;
18435;SDS011;9346;52.006;4.720;2023-08-30T05:02:37;11.43;;;7.07;;
18435;SDS011;9346;52.006;4.720;2023-08-30T05:05:06;13.27;;;7.57;;
18435;SDS011;9346;52.006;4.720;2023-08-30T05:07:33;16.17;;;7.90;;
18435;SDS011;9346;52.006;4.720;2023-08-30T05:10:02;14.30;;;7.37;;
18435;SDS011;9346;52.006;4.720;2023-08-30T05:12:29;10.30;;;7.10;;
18435;SDS011;9346;52.006;4.720;2023-08-30T05:14:56;12.47;;;7.00;;
18435;SDS011;9346;52.006;4.720;2023-08-30T05:17:23;12.53;;;7.40;;
18435;SDS011;9346;52.006;4.720;2023-08-30T05:19:50;12.43;;;7.37;;
18435;SDS011;9346;52.006;4.720;2023-08-30T05:22:17;9.90;;;7.30;;
18435;SDS011;9346;52.006;4.720;2023-08-30T05:24:44;11.03;;;7.87;;
18435;SDS011;9346;52.006;4.720;2023-08-30T05:27:12;12.97;;;7.97;;
18435;SDS011;9346;52.006;4.720;2023-08-30T05:29:39;17.83;;;7.93;;
18435;SDS011;9346;52.006;4.720;2023-08-30T05:32:06;11.77;;;6.67;;
18435;SDS011;9346;52.006;4.720;2023-08-30T05:34:33;12.77;;;8.23;;
18435;SDS011;9346;52.006;4.720;2023-08-30T05:37:00;14.13;;;7.63;;
18435;SDS011;9346;52.006;4.720;2023-08-30T05:39:27;10.30;;;6.70;;
18435;SDS011;9346;52.006;4.720;2023-08-30T05:41:54;13.23;;;8.73;;
18435;SDS011;9346;52.006;4.720;2023-08-30T05:44:23;12.80;;;7.43;;
18435;SDS011;9346;52.006;4.720;2023-08-30T05:46:50;12.13;;;7.53;;
18435;SDS011;9346;52.006;4.720;2023-08-30T05:49:17;14.17;;;8.13;;
18435;SDS011;9346;52.006;4.720;2023-08-30T05:51:44;11.53;;;8.03;;
18435;SDS011;9346;52.006;4.720;2023-08-30T05:54:12;17.67;;;8.20;;
18435;SDS011;9346;52.006;4.720;2023-08-30T05:56:39;11.53;;;8.00;;
18435;SDS011;9346;52.006;4.720;2023-08-30T05:59:07;15.60;;;7.90;;
18435;SDS011;9346;52.006;4.720;2023-08-30T06:01:35;12.10;;;8.37;;
18435;SDS011;9346;52.006;4.720;2023-08-30T06:04:03;14.93;;;8.57;;
18435;SDS011;9346;52.006;4.720;2023-08-30T06:06:30;18.87;;;8.00;;
18435;SDS011;9346;52.006;4.720;2023-08-30T06:08:58;14.17;;;8.90;;
18435;SDS011;9346;52.006;4.720;2023-08-30T06:11:27;16.80;;;9.47;;
18435;SDS011;9346;52.006;4.720;2023-08-30T06:13:54;16.47;;;9.20;;
18435;SDS011;9346;52.006;4.720;2023-08-30T06:19:17;14.90;;;9.00;;
18435;SDS011;9346;52.006;4.720;2023-08-30T06:21:43;17.40;;;8.97;;
18435;SDS011;9346;52.006;4.720;2023-08-30T06:24:10;11.50;;;8.27;;
18435;SDS011;9346;52.006;4.720;2023-08-30T06:26:37;14.13;;;9.43;;
18435;SDS011;9346;52.006;4.720;2023-08-30T06:29:04;15.50;;;9.77;;
18435;SDS011;9346;52.006;4.720;2023-08-30T06:31:31;13.97;;;8.67;;
18435;SDS011;9346;52.006;4.720;2023-08-30T06:34:00;14.13;;;9.93;;
18435;SDS011;9346;52.006;4.720;2023-08-30T06:36:27;13.90;;;9.30;;
18435;SDS011;9346;52.006;4.720;2023-08-30T06:38:54;15.33;;;8.93;;
18435;SDS011;9346;52.006;4.720;2023-08-30T06:41:21;16.07;;;9.07;;
18435;SDS011;9346;52.006;4.720;2023-08-30T06:43:48;17.23;;;9.80;;
18435;SDS011;9346;52.006;4.720;2023-08-30T06:46:15;15.10;;;9.17;;
18435;SDS011;9346;52.006;4.720;2023-08-30T06:48:42;13.10;;;9.13;;
18435;SDS011;9346;52.006;4.720;2023-08-30T06:51:11;10.33;;;8.20;;
18435;SDS011;9346;52.006;4.720;2023-08-30T06:53:38;13.50;;;8.80;;
18435;SDS011;9346;52.006;4.720;2023-08-30T06:56:05;12.93;;;7.87;;
18435;SDS011;9346;52.006;4.720;2023-08-30T06:58:32;12.03;;;7.77;;
18435;SDS011;9346;52.006;4.720;2023-08-30T07:00:59;12.37;;;7.97;;
18435;SDS011;9346;52.006;4.720;2023-08-30T07:03:28;12.63;;;8.80;;
18435;SDS011;9346;52.006;4.720;2023-08-30T07:05:56;13.93;;;9.10;;
18435;SDS011;9346;52.006;4.720;2023-08-30T07:08:24;14.10;;;9.37;;
18435;SDS011;9346;52.006;4.720;2023-08-30T07:10:51;13.83;;;9.07;;
18435;SDS011;9346;52.006;4.720;2023-08-30T07:13:21;15.57;;;9.33;;
18435;SDS011;9346;52.006;4.720;2023-08-30T07:15:48;12.17;;;8.47;;
18435;SDS011;9346;52.006;4.720;2023-08-30T07:18:15;13.77;;;8.37;;
18435;SDS011;9346;52.006;4.720;2023-08-30T07:20:45;12.30;;;7.60;;
18435;SDS011;9346;52.006;4.720;2023-08-30T07:23:11;11.27;;;7.33;;
18435;SDS011;9346;52.006;4.720;2023-08-30T07:25:40;12.17;;;7.97;;
18435;SDS011;9346;52.006;4.720;2023-08-30T07:28:08;10.50;;;7.13;;
18435;SDS011;9346;52.006;4.720;2023-08-30T07:30:35;9.90;;;7.17;;
18435;SDS011;9346;52.006;4.720;2023-08-30T07:33:03;11.00;;;5.90;;
18435;SDS011;9346;52.006;4.720;2023-08-30T07:35:30;9.50;;;6.90;;
18435;SDS011;9346;52.006;4.720;2023-08-30T07:37:57;10.23;;;6.80;;
18435;SDS011;9346;52.006;4.720;2023-08-30T07:40:25;10.23;;;6.90;;
18435;SDS011;9346;52.006;4.720;2023-08-30T07:42:55;10.23;;;6.20;;
18435;SDS011;9346;52.006;4.720;2023-08-30T07:45:22;10.03;;;6.00;;
18435;SDS011;9346;52.006;4.720;2023-08-30T07:47:49;8.93;;;5.47;;
18435;SDS011;9346;52.006;4.720;2023-08-30T07:50:16;8.97;;;6.50;;
18435;SDS011;9346;52.006;4.720;2023-08-30T07:52:44;9.97;;;6.90;;
18435;SDS011;9346;52.006;4.720;2023-08-30T07:55:12;10.70;;;6.07;;
18435;SDS011;9346;52.006;4.720;2023-08-30T07:57:40;9.33;;;5.97;;
18435;SDS011;9346;52.006;4.720;2023-08-30T08:00:11;9.77;;;5.93;;
18435;SDS011;9346;52.006;4.720;2023-08-30T08:02:40;9.20;;;5.50;;
18435;SDS011;9346;52.006;4.720;2023-08-30T08:05:07;6.37;;;4.87;;
18435;SDS011;9346;52.006;4.720;2023-08-30T08:07:38;7.93;;;5.27;;
18435;SDS011;9346;52.006;4.720;2023-08-30T08:10:06;5.63;;;4.70;;
18435;SDS011;9346;52.006;4.720;2023-08-30T08:12:35;5.07;;;4.40;;
18435;SDS011;9346;52.006;4.720;2023-08-30T08:15:02;7.20;;;4.70;;
18435;SDS011;9346;52.006;4.720;2023-08-30T08:17:32;10.73;;;5.10;;
18435;SDS011;9346;52.006;4.720;2023-08-30T08:19:59;8.10;;;5.10;;
18435;SDS011;9346;52.006;4.720;2023-08-30T08:22:26;5.97;;;4.57;;
18435;SDS011;9346;52.006;4.720;2023-08-30T08:24:53;7.77;;;5.40;;
18435;SDS011;9346;52.006;4.720;2023-08-30T08:27:22;7.83;;;5.37;;
18435;SDS011;9346;52.006;4.720;2023-08-30T08:29:51;9.00;;;5.67;;
18435;SDS011;9346;52.006;4.720;2023-08-30T08:32:18;9.53;;;6.70;;
18435;SDS011;9346;52.006;4.720;2023-08-30T08:34:47;11.13;;;7.03;;
18435;SDS011;9346;52.006;4.720;2023-08-30T08:37:14;8.10;;;6.50;;
18435;SDS011;9346;52.006;4.720;2023-08-30T08:39:41;9.13;;;7.00;;
18435;SDS011;9346;52.006;4.720;2023-08-30T08:42:09;10.27;;;7.10;;
18435;SDS011;9346;52.006;4.720;2023-08-30T08:44:36;9.83;;;7.40;;
18435;SDS011;9346;52.006;4.720;2023-08-30T08:47:06;11.00;;;7.13;;
18435;SDS011;9346;52.006;4.720;2023-08-30T08:49:34;9.60;;;6.80;;
18435;SDS011;9346;52.006;4.720;2023-08-30T08:52:04;11.83;;;7.37;;
18435;SDS011;9346;52.006;4.720;2023-08-30T08:54:34;9.63;;;7.60;;
18435;SDS011;9346;52.006;4.720;2023-08-30T08:57:03;9.97;;;7.83;;
18435;SDS011;9346;52.006;4.720;2023-08-30T08:59:31;9.53;;;7.60;;
18435;SDS011;9346;52.006;4.720;2023-08-30T09:02:01;10.33;;;8.27;;
18435;SDS011;9346;52.006;4.720;2023-08-30T09:04:30;10.83;;;8.17;;
18435;SDS011;9346;52.006;4.720;2023-08-30T09:06:58;12.13;;;8.73;;
18435;SDS011;9346;52.006;4.720;2023-08-30T09:09:27;12.10;;;9.40;;
18435;SDS011;9346;52.006;4.720;2023-08-30T09:11:55;12.27;;;9.37;;
18435;SDS011;9346;52.006;4.720;2023-08-30T09:14:22;13.63;;;9.40;;
18435;SDS011;9346;52.006;4.720;2023-08-30T09:16:55;12.50;;;9.37;;
18435;SDS011;9346;52.006;4.720;2023-08-30T09:19:22;12.43;;;8.73;;
18435;SDS011;9346;52.006;4.720;2023-08-30T09:21:58;10.23;;;7.80;;
18435;SDS011;9346;52.006;4.720;2023-08-30T09:24:36;9.63;;;6.13;;
18435;SDS011;9346;52.006;4.720;2023-08-30T09:27:04;6.13;;;4.93;;
18435;SDS011;9346;52.006;4.720;2023-08-30T09:29:30;6.60;;;4.33;;
18435;SDS011;9346;52.006;4.720;2023-08-30T09:31:58;5.00;;;4.03;;
18435;SDS011;9346;52.006;4.720;2023-08-30T09:34:25;7.13;;;4.17;;
18435;SDS011;9346;52.006;4.720;2023-08-30T09:36:52;6.13;;;4.10;;
18435;SDS011;9346;52.006;4.720;2023-08-30T09:39:20;5.97;;;3.67;;
18435;SDS011;9346;52.006;4.720;2023-08-30T09:41:50;8.97;;;3.60;;
18435;SDS011;9346;52.006;4.720;2023-08-30T09:44:18;5.10;;;3.43;;
18435;SDS011;9346;52.006;4.720;2023-08-30T09:46:46;7.87;;;3.60;;
18435;SDS011;9346;52.006;4.720;2023-08-30T09:49:18;7.93;;;3.30;;
18435;SDS011;9346;52.006;4.720;2023-08-30T09:51:46;4.47;;;3.17;;
18435;SDS011;9346;52.006;4.720;2023-08-30T09:54:14;9.87;;;3.30;;
18435;SDS011;9346;52.006;4.720;2023-08-30T09:56:42;5.53;;;2.83;;
18435;SDS011;9346;52.006;4.720;2023-08-30T09:59:11;6.13;;;3.13;;
18435;SDS011;9346;52.006;4.720;2023-08-30T10:01:39;4.63;;;2.17;;
18435;SDS011;9346;52.006;4.720;2023-08-30T10:04:07;8.17;;;2.43;;
18435;SDS011;9346;52.006;4.720;2023-08-30T10:06:35;4.77;;;2.53;;
18435;SDS011;9346;52.006;4.720;2023-08-30T10:09:02;3.73;;;2.23;;
18435;SDS011;9346;52.006;4.720;2023-08-30T10:11:32;4.07;;;2.00;;
18435;SDS011;9346;52.006;4.720;2023-08-30T10:14:01;3.27;;;2.17;;
18435;SDS011;9346;52.006;4.720;2023-08-30T10:16:31;2.57;;;1.63;;
18435;SDS011;9346;52.006;4.720;2023-08-30T10:19:06;5.50;;;1.97;;
18435;SDS011;9346;52.006;4.720;2023-08-30T10:21:36;6.03;;;1.80;;
18435;SDS011;9346;52.006;4.720;2023-08-30T10:24:05;1.80;;;1.50;;
18435;SDS011;9346;52.006;4.720;2023-08-30T10:26:35;4.30;;;1.87;;
18435;SDS011;9346;52.006;4.720;2023-08-30T10:29:06;5.70;;;1.63;;
18435;SDS011;9346;52.006;4.720;2023-08-30T10:31:37;4.33;;;1.90;;
18435;SDS011;9346;52.006;4.720;2023-08-30T10:34:11;2.87;;;1.47;;
18435;SDS011;9346;52.006;4.720;2023-08-30T10:36:40;2.87;;;1.37;;
18435;SDS011;9346;52.006;4.720;2023-08-30T10:39:11;2.77;;;1.73;;
18435;SDS011;9346;52.006;4.720;2023-08-30T10:41:53;6.83;;;1.70;;
18435;SDS011;9346;52.006;4.720;2023-08-30T10:44:21;4.73;;;1.90;;
18435;SDS011;9346;52.006;4.720;2023-08-30T10:46:53;2.90;;;1.17;;
18435;SDS011;9346;52.006;4.720;2023-08-30T10:49:21;4.43;;;1.33;;
18435;SDS011;9346;52.006;4.720;2023-08-30T10:51:54;5.60;;;1.20;;
18435;SDS011;9346;52.006;4.720;2023-08-30T10:54:22;4.23;;;1.43;;
18435;SDS011;9346;52.006;4.720;2023-08-30T10:56:54;2.17;;;1.53;;
18435;SDS011;9346;52.006;4.720;2023-08-30T10:59:23;5.33;;;2.00;;
18435;SDS011;9346;52.006;4.720;2023-08-30T11:01:54;2.87;;;1.50;;
18435;SDS011;9346;52.006;4.720;2023-08-30T11:04:22;2.33;;;1.30;;
18435;SDS011;9346;52.006;4.720;2023-08-30T11:06:50;6.03;;;1.40;;
18435;SDS011;9346;52.006;4.720;2023-08-30T11:09:18;4.93;;;1.73;;
18435;SDS011;9346;52.006;4.720;2023-08-30T11:11:47;6.73;;;1.70;;
18435;SDS011;9346;52.006;4.720;2023-08-30T11:14:15;3.30;;;1.63;;
18435;SDS011;9346;52.006;4.720;2023-08-30T11:16:43;3.23;;;1.17;;
18435;SDS011;9346;52.006;4.720;2023-08-30T11:19:12;5.90;;;1.10;;
18435;SDS011;9346;52.006;4.720;2023-08-30T11:21:39;2.13;;;0.90;;
18435;SDS011;9346;52.006;4.720;2023-08-30T11:24:09;2.27;;;1.40;;
18435;SDS011;9346;52.006;4.720;2023-08-30T11:26:37;2.77;;;1.10;;
18435;SDS011;9346;52.006;4.720;2023-08-30T11:29:04;2.27;;;1.00;;
18435;SDS011;9346;52.006;4.720;2023-08-30T11:31:32;2.87;;;1.00;;
18435;SDS011;9346;52.006;4.720;2023-08-30T11:33:59;3.37;;;1.10;;
18435;SDS011;9346;52.006;4.720;2023-08-30T11:36:29;1.93;;;1.10;;
18435;SDS011;9346;52.006;4.720;2023-08-30T11:38:57;1.37;;;1.00;;
18435;SDS011;9346;52.006;4.720;2023-08-30T11:41:24;2.97;;;1.37;;
18435;SDS011;9346;52.006;4.720;2023-08-30T11:43:52;3.40;;;1.13;;
18435;SDS011;9346;52.006;4.720;2023-08-30T11:46:20;4.67;;;1.30;;
18435;SDS011;9346;52.006;4.720;2023-08-30T11:48:48;1.30;;;1.00;;
18435;SDS011;9346;52.006;4.720;2023-08-30T11:51:16;4.00;;;0.87;;
18435;SDS011;9346;52.006;4.720;2023-08-30T11:53:46;3.77;;;0.90;;
18435;SDS011;9346;52.006;4.720;2023-08-30T11:56:14;3.37;;;1.10;;
18435;SDS011;9346;52.006;4.720;2023-08-30T11:58:43;3.23;;;1.37;;
18435;SDS011;9346;52.006;4.720;2023-08-30T12:01:10;8.70;;;1.30;;
18435;SDS011;9346;52.006;4.720;2023-08-30T12:03:37;2.27;;;1.10;;
18435;SDS011;9346;52.006;4.720;2023-08-30T12:06:09;5.13;;;1.53;;
18435;SDS011;9346;52.006;4.720;2023-08-30T12:08:36;2.40;;;1.40;;
18435;SDS011;9346;52.006;4.720;2023-08-30T12:11:05;4.50;;;1.00;;
18435;SDS011;9346;52.006;4.720;2023-08-30T12:13:32;3.70;;;1.13;;
18435;SDS011;9346;52.006;4.720;2023-08-30T12:16:01;2.93;;;1.20;;
18435;SDS011;9346;52.006;4.720;2023-08-30T12:18:29;6.83;;;1.60;;
18435;SDS011;9346;52.006;4.720;2023-08-30T12:20:58;4.00;;;1.37;;
18435;SDS011;9346;52.006;4.720;2023-08-30T12:23:27;1.53;;;1.20;;
18435;SDS011;9346;52.006;4.720;2023-08-30T12:25:58;4.03;;;1.27;;
18435;SDS011;9346;52.006;4.720;2023-08-30T12:28:28;11.70;;;0.80;;
18435;SDS011;9346;52.006;4.720;2023-08-30T12:30:56;4.67;;;1.53;;
18435;SDS011;9346;52.006;4.720;2023-08-30T12:33:23;0.93;;;0.70;;
18435;SDS011;9346;52.006;4.720;2023-08-30T12:35:51;1.30;;;0.87;;
18435;SDS011;9346;52.006;4.720;2023-08-30T12:38:18;2.30;;;1.10;;
18435;SDS011;9346;52.006;4.720;2023-08-30T12:40:45;3.53;;;1.27;;
18435;SDS011;9346;52.006;4.720;2023-08-30T12:43:13;3.83;;;1.30;;
18435;SDS011;9346;52.006;4.720;2023-08-30T12:45:42;1.80;;;1.20;;
18435;SDS011;9346;52.006;4.720;2023-08-30T12:48:10;3.23;;;1.60;;
18435;SDS011;9346;52.006;4.720;2023-08-30T12:50:40;3.33;;;1.27;;
18435;SDS011;9346;52.006;4.720;2023-08-30T12:53:08;5.73;;;1.70;;
18435;SDS011;9346;52.006;4.720;2023-08-30T12:55:35;2.93;;;1.30;;
18435;SDS011;9346;52.006;4.720;2023-08-30T12:58:04;2.57;;;1.70;;
18435;SDS011;9346;52.006;4.720;2023-08-30T13:00:31;3.83;;;1.57;;
18435;SDS011;9346;52.006;4.720;2023-08-30T13:03:00;4.33;;;1.80;;
18435;SDS011;9346;52.006;4.720;2023-08-30T13:05:28;2.53;;;1.97;;
18435;SDS011;9346;52.006;4.720;2023-08-30T13:07:55;2.83;;;1.20;;
18435;SDS011;9346;52.006;4.720;2023-08-30T13:10:22;2.30;;;1.23;;
18435;SDS011;9346;52.006;4.720;2023-08-30T13:12:49;3.57;;;1.20;;
18435;SDS011;9346;52.006;4.720;2023-08-30T13:15:15;5.23;;;1.10;;
18435;SDS011;9346;52.006;4.720;2023-08-30T13:17:43;1.33;;;0.87;;
18435;SDS011;9346;52.006;4.720;2023-08-30T13:20:12;1.10;;;1.00;;
18435;SDS011;9346;52.006;4.720;2023-08-30T13:22:39;1.97;;;1.50;;
18435;SDS011;9346;52.006;4.720;2023-08-30T13:25:06;3.77;;;1.40;;
18435;SDS011;9346;52.006;4.720;2023-08-30T13:27:34;4.13;;;1.13;;
18435;SDS011;9346;52.006;4.720;2023-08-30T13:30:01;6.37;;;1.40;;
18435;SDS011;9346;52.006;4.720;2023-08-30T13:32:28;1.93;;;1.10;;
18435;SDS011;9346;52.006;4.720;2023-08-30T13:34:55;2.87;;;1.10;;
18435;SDS011;9346;52.006;4.720;2023-08-30T13:37:23;3.70;;;1.10;;
18435;SDS011;9346;52.006;4.720;2023-08-30T13:39:52;4.10;;;1.07;;
18435;SDS011;9346;52.006;4.720;2023-08-30T13:42:19;3.27;;;1.00;;
18435;SDS011;9346;52.006;4.720;2023-08-30T13:44:49;2.27;;;0.97;;
18435;SDS011;9346;52.006;4.720;2023-08-30T13:47:17;5.00;;;1.30;;
18435;SDS011;9346;52.006;4.720;2023-08-30T13:49:45;2.17;;;1.20;;
18435;SDS011;9346;52.006;4.720;2023-08-30T13:52:12;2.90;;;1.50;;
18435;SDS011;9346;52.006;4.720;2023-08-30T13:54:40;4.90;;;1.40;;
18435;SDS011;9346;52.006;4.720;2023-08-30T13:57:10;3.90;;;0.80;;
18435;SDS011;9346;52.006;4.720;2023-08-30T13:59:37;1.50;;;1.00;;
18435;SDS011;9346;52.006;4.720;2023-08-30T14:02:04;1.87;;;1.13;;
18435;SDS011;9346;52.006;4.720;2023-08-30T14:04:31;1.90;;;1.47;;
18435;SDS011;9346;52.006;4.720;2023-08-30T14:07:01;2.07;;;0.77;;
18435;SDS011;9346;52.006;4.720;2023-08-30T14:09:29;4.70;;;1.43;;
18435;SDS011;9346;52.006;4.720;2023-08-30T14:11:58;2.70;;;1.13;;
18435;SDS011;9346;52.006;4.720;2023-08-30T14:14:25;1.40;;;1.07;;
18435;SDS011;9346;52.006;4.720;2023-08-30T14:16:52;1.90;;;1.10;;
18435;SDS011;9346;52.006;4.720;2023-08-30T14:19:19;2.37;;;1.20;;
18435;SDS011;9346;52.006;4.720;2023-08-30T14:21:46;3.30;;;1.20;;
18435;SDS011;9346;52.006;4.720;2023-08-30T14:24:13;2.27;;;1.10;;
18435;SDS011;9346;52.006;4.720;2023-08-30T14:26:40;3.47;;;1.40;;
18435;SDS011;9346;52.006;4.720;2023-08-30T14:29:08;2.70;;;1.10;;
18435;SDS011;9346;52.006;4.720;2023-08-30T14:31:35;3.37;;;1.60;;
18435;SDS011;9346;52.006;4.720;2023-08-30T14:34:02;2.67;;;1.20;;
18435;SDS011;9346;52.006;4.720;2023-08-30T14:36:29;3.10;;;1.57;;
18435;SDS011;9346;52.006;4.720;2023-08-30T14:38:56;3.00;;;1.17;;
18435;SDS011;9346;52.006;4.720;2023-08-30T14:41:24;1.90;;;0.90;;
18435;SDS011;9346;52.006;4.720;2023-08-30T14:43:51;2.33;;;1.30;;
18435;SDS011;9346;52.006;4.720;2023-08-30T14:46:20;3.33;;;1.20;;
18435;SDS011;9346;52.006;4.720;2023-08-30T14:48:47;2.10;;;1.10;;
18435;SDS011;9346;52.006;4.720;2023-08-30T14:51:14;1.63;;;1.20;;
18435;SDS011;9346;52.006;4.720;2023-08-30T14:53:41;5.90;;;1.30;;
18435;SDS011;9346;52.006;4.720;2023-08-30T14:56:08;7.57;;;2.07;;
18435;SDS011;9346;52.006;4.720;2023-08-30T14:58:36;3.33;;;1.20;;
18435;SDS011;9346;52.006;4.720;2023-08-30T15:01:04;2.83;;;1.20;;
18435;SDS011;9346;52.006;4.720;2023-08-30T15:03:33;2.20;;;1.47;;
18435;SDS011;9346;52.006;4.720;2023-08-30T15:06:03;1.30;;;1.20;;